Terminal Aerodrome Forecast
Issued by NWS

Home | Current Version | Previous Version | Text Only | Print | Product List | Glossary On
Versions: 1 2 3 4 5 6 7 8 9 10 11 12 13 14 15 16 17
000
FTUS41 KBOX 291720
TAFBED
TAF
KBED 291720Z 2918/3018 06007KT P6SM BKN010
     FM300100 10005KT P6SM BKN015
     FM300300 VRB03KT 3SM BR BKN003
     FM300500 VRB03KT 3SM BR VCSH BKN003
     FM300800 00000KT 2SM -SHRA BR OVC003
     FM301600 21006KT 3SM -SHRA BR OVC008=

USA.gov is the U.S. government's official web portal to all federal, state and local government web resources and services.